Nearby METAR Reports

 

KSJC - San Jose, California, USA
Distance from station: NE 14km
Updated: 21/05/2018 16:53
Few Clouds
Few Clouds
 Wind from calm
Wind: Calm
Temperature: 22°C
Dew Point: 10°C
Humidity: 47%
Barometer: 1010.8 hPa
Clouds: Few Clouds
Visibility: 16 km
Cloud details: Few Clouds 457 m
Few Clouds 1524 m
2018/05/21 19:53 KSJC 211953Z 00000KT 10SM FEW015 FEW050 22/10 A2985 RMK AO2 SLP107 T02220100
KNUQ - Moffett Nas/Mtn, California, USA
Distance from station: N 14km
Updated: 21/05/2018 16:56
Clear
Clear
 Wind from N
Wind: N 22 km/h
Temperature: 21°C
Dew Point: 12°C
Humidity: 57%
Barometer: 1011.5 hPa
Clouds: Clear
Visibility: 16 km
2018/05/21 19:56 KNUQ 211956Z 35012KT 10SM CLR 21/12 A2987 RMK AO2 SLP117 T02110117
 
KPAO - Palo Alto, California, USA
Distance from station: NNW 23km
Updated: 21/05/2018 15:47
NOT Current
Clear
Clear
 Wind from N
Wind: N 11 km/h
Barometer: 1011.5 hPa
Clouds: Clear
Visibility: 16 km
2018/05/21 18:47 KPAO 211847Z 01006KT 10SM SKC A2987
KRHV - San Jose/Reid, California, USA
Distance from station: ENE 19km
Updated: 21/05/2018 16:47
Few Clouds
Few Clouds
 Wind from varies
Wind: varies 11 km/h
Temperature: 23°C
Dew Point: 10°C
Humidity: 44%
Barometer: 1010.5 hPa
Clouds: Few Clouds
Visibility: 16 km
Cloud details: Few Clouds 914 m
2018/05/21 19:47 KRHV 211947Z VRB06KT 10SM FEW030 23/10 A2984
 
KOAK - Oakland, California, USA
Distance from station: NNW 50km
Updated: 21/05/2018 16:53
Few Clouds
Few Clouds
 Wind from WSW
Wind: WSW 24 km/h
Temperature: 17°C
Dew Point: 11°C
Humidity: 68%
Barometer: 1012.2 hPa
Clouds: Few Clouds
Visibility: 16 km
Cloud details: Few Clouds 610 m
Few Clouds 6096 m
2018/05/21 19:53 KOAK 211953Z 25013KT 10SM FEW020 FEW200 17/11 A2989 RMK AO2 SLP121 T01670106
KSQL - San Carlos Airpo, California, USA
Distance from station: NW 34km
Updated: 21/05/2018 16:50
Few Clouds
Few Clouds
 Wind from W
Wind: W 28 km/h, Gust: 37 km/h
Temperature: 18°C
Dew Point: 10°C
Humidity: 60%
Barometer: 1011.5 hPa
Clouds: Few Clouds
Visibility: 16 km
Cloud details: Few Clouds 610 m
2018/05/21 19:50 KSQL 211950Z 26015G20KT 10SM FEW020 18/10 A2987
 
KSFO - San Francisco, California, USA
Distance from station: NW 49km
Updated: 31/12/1969 20:00
NOT Current
unable to load KSFO data RC=404 Not Found
unable to load KSFO data RC=404 Not Found
 
KE16 - San Martin, California, USA
Distance from station: ESE 43km
Updated: 21/05/2018 17:35
Clear
Clear
 Wind from S
Wind: S 13 km/h, Gust: 33 km/h
Temperature: 18°C
Dew Point: 10°C
Humidity: 60%
Barometer: 1011.9 hPa
Clouds: Clear
Visibility: 16 km
2018/05/21 20:35 KE16 212035Z AUTO 18007G18KT 150V220 10SM CLR 18/10 A2988 RMK AO2
 
KWVI - Watsonville, California, USA
Distance from station: SSE 44km
Updated: 21/05/2018 16:53
Overcast
Overcast
 Wind from SW
Wind: SW 13 km/h
Temperature: 14°C
Dew Point: 11°C
Humidity: 82%
Barometer: 1012.9 hPa
Clouds: Overcast
Visibility: 11 km
Cloud details: Overcast 488 m
2018/05/21 19:53 KWVI 211953Z AUTO 22007KT 7SM OVC016 14/11 A2991 RMK AO2 SLP128 T01440106
KHAF - Half Moon Bay, California, USA
Distance from station: WNW 50km
Updated: 21/05/2018 17:35
Haze, Overcast
Haze, Overcast
 Wind from NNW
Wind: NNW 24 km/h, Gust: 31 km/h
Temperature: 13°C
Dew Point: 10°C
Humidity: 82%
Barometer: 1013.5 hPa
Summary: Haze
Clouds: Overcast
Visibility: 8 km
Cloud details: Overcast 335 m
2018/05/21 20:35 KHAF 212035Z AUTO 33013G17KT 5SM HZ OVC011 13/10 A2993 RMK AO2
 
KHWD - Hayward, California, USA
Distance from station: N 44km
Updated: 21/05/2018 16:54
Clear
Clear
 Wind from W
Wind: W 30 km/h
Temperature: 18°C
Dew Point: 11°C
Humidity: 64%
Barometer: 1012.2 hPa
Clouds: Clear
Visibility: 16 km
2018/05/21 19:54 KHWD 211954Z 28016KT 10SM CLR 18/11 A2989 RMK AO2 SLP130 T01830106
KLVK - Livermore, California, USA
Distance from station: NNE 51km
Updated: 21/05/2018 16:53
Clear
Clear
 Wind from WNW
Wind: WNW 20 km/h
Temperature: 23°C
Dew Point: 13°C
Humidity: 53%
Barometer: 1010.2 hPa
Clouds: Clear
Visibility: 16 km
2018/05/21 19:53 KLVK 211953Z 30011KT 10SM CLR 23/13 A2983 RMK AO2 SLP100 T02330128